sensor_id;sensor_type;location;lat;lon;timestamp;pressure;altitude;pressure_sealevel;temperature;humidity
56330;BME280;42236;48.058;10.632;2024-03-25T00:02:34;93941.84;;;2.14;100.00
56330;BME280;42236;48.058;10.632;2024-03-25T00:05:20;93948.56;;;2.12;100.00
56330;BME280;42236;48.058;10.632;2024-03-25T00:08:08;93950.94;;;2.13;100.00
56330;BME280;42236;48.058;10.632;2024-03-25T00:10:54;93958.41;;;2.11;100.00
56330;BME280;42236;48.058;10.632;2024-03-25T00:13:40;93957.94;;;2.09;100.00
56330;BME280;42236;48.058;10.632;2024-03-25T00:16:26;93957.94;;;2.09;100.00
56330;BME280;42236;48.058;10.632;2024-03-25T00:19:12;93954.78;;;2.07;100.00
56330;BME280;42236;48.058;10.632;2024-03-25T00:21:58;93959.31;;;2.07;100.00
56330;BME280;42236;48.058;10.632;2024-03-25T00:24:44;93955.69;;;2.03;100.00
56330;BME280;42236;48.058;10.632;2024-03-25T00:27:29;93962.59;;;2.04;100.00
56330;BME280;42236;48.058;10.632;2024-03-25T00:30:16;93967.13;;;2.03;100.00
56330;BME280;42236;48.058;10.632;2024-03-25T00:33:01;93965.75;;;2.06;100.00
56330;BME280;42236;48.058;10.632;2024-03-25T00:35:47;93963.09;;;2.06;100.00
56330;BME280;42236;48.058;10.632;2024-03-25T00:38:33;93970.75;;;2.07;100.00
56330;BME280;42236;48.058;10.632;2024-03-25T00:41:18;93966.25;;;2.08;100.00
56330;BME280;42236;48.058;10.632;2024-03-25T00:44:04;93964.34;;;2.08;100.00
56330;BME280;42236;48.058;10.632;2024-03-25T00:46:50;93965.91;;;2.09;100.00
56330;BME280;42236;48.058;10.632;2024-03-25T00:49:35;93967.50;;;2.10;100.00
56330;BME280;42236;48.058;10.632;2024-03-25T00:52:21;93967.50;;;2.10;100.00
56330;BME280;42236;48.058;10.632;2024-03-25T00:55:07;93963.25;;;2.09;100.00
56330;BME280;42236;48.058;10.632;2024-03-25T00:57:53;93962.75;;;2.07;100.00
56330;BME280;42236;48.058;10.632;2024-03-25T01:00:39;93960.72;;;2.04;100.00
56330;BME280;42236;48.058;10.632;2024-03-25T01:03:25;93955.41;;;2.04;100.00
56330;BME280;42236;48.058;10.632;2024-03-25T01:06:10;93956.19;;;2.05;100.00
56330;BME280;42236;48.058;10.632;2024-03-25T01:08:56;93956.50;;;2.03;100.00
56330;BME280;42236;48.058;10.632;2024-03-25T01:11:42;93958.06;;;2.04;100.00
56330;BME280;42236;48.058;10.632;2024-03-25T01:14:27;93956.66;;;2.07;100.00
56330;BME280;42236;48.058;10.632;2024-03-25T01:17:13;93949.94;;;2.09;100.00
56330;BME280;42236;48.058;10.632;2024-03-25T01:19:58;93949.94;;;2.09;100.00
56330;BME280;42236;48.058;10.632;2024-03-25T01:22:44;93952.13;;;2.07;100.00
56330;BME280;42236;48.058;10.632;2024-03-25T01:25:30;93949.16;;;2.09;100.00
56330;BME280;42236;48.058;10.632;2024-03-25T01:28:16;93953.72;;;2.08;100.00
56330;BME280;42236;48.058;10.632;2024-03-25T01:31:02;93953.22;;;2.06;100.00
56330;BME280;42236;48.058;10.632;2024-03-25T01:33:47;93953.66;;;2.00;100.00
56330;BME280;42236;48.058;10.632;2024-03-25T01:36:33;93950.50;;;1.98;100.00
56330;BME280;42236;48.058;10.632;2024-03-25T01:39:20;93952.38;;;1.97;100.00
56330;BME280;42236;48.058;10.632;2024-03-25T01:42:06;93950.63;;;1.92;100.00
56330;BME280;42236;48.058;10.632;2024-03-25T01:44:51;93950.47;;;1.89;100.00
56330;BME280;42236;48.058;10.632;2024-03-25T01:47:37;93949.19;;;1.86;100.00
56330;BME280;42236;48.058;10.632;2024-03-25T01:50:25;93947.59;;;1.85;100.00
56330;BME280;42236;48.058;10.632;2024-03-25T01:53:12;93946.94;;;1.80;100.00
56330;BME280;42236;48.058;10.632;2024-03-25T01:55:59;93948.34;;;1.77;100.00
56330;BME280;42236;48.058;10.632;2024-03-25T01:58:46;93944.69;;;1.73;100.00
56330;BME280;42236;48.058;10.632;2024-03-25T02:01:31;93944.22;;;1.71;100.00
56330;BME280;42236;48.058;10.632;2024-03-25T02:04:17;93942.16;;;1.68;100.00
56330;BME280;42236;48.058;10.632;2024-03-25T02:07:03;93927.59;;;1.65;100.00
56330;BME280;42236;48.058;10.632;2024-03-25T02:09:52;93934.59;;;1.61;100.00
56330;BME280;42236;48.058;10.632;2024-03-25T02:12:38;93936.75;;;1.59;100.00
56330;BME280;42236;48.058;10.632;2024-03-25T02:15:23;93936.31;;;1.57;100.00
56330;BME280;42236;48.058;10.632;2024-03-25T02:18:11;93933.66;;;1.57;100.00
56330;BME280;42236;48.058;10.632;2024-03-25T02:20:58;93926.25;;;1.54;100.00
56330;BME280;42236;48.058;10.632;2024-03-25T02:23:44;93931.56;;;1.54;100.00
56330;BME280;42236;48.058;10.632;2024-03-25T02:26:30;93933.72;;;1.52;100.00
56330;BME280;42236;48.058;10.632;2024-03-25T02:29:16;93935.13;;;1.49;100.00
56330;BME280;42236;48.058;10.632;2024-03-25T02:32:02;93923.22;;;1.47;100.00
56330;BME280;42236;48.058;10.632;2024-03-25T02:34:50;93929.34;;;1.47;100.00
56330;BME280;42236;48.058;10.632;2024-03-25T02:37:38;93928.84;;;1.45;100.00
56330;BME280;42236;48.058;10.632;2024-03-25T02:40:25;93933.84;;;1.47;100.00
56330;BME280;42236;48.058;10.632;2024-03-25T02:43:11;93939.97;;;1.47;100.00
56330;BME280;42236;48.058;10.632;2024-03-25T02:45:57;93936.50;;;1.47;100.00
56330;BME280;42236;48.058;10.632;2024-03-25T02:48:43;93939.97;;;1.47;100.00
56330;BME280;42236;48.058;10.632;2024-03-25T02:51:28;93938.59;;;1.50;100.00
56330;BME280;42236;48.058;10.632;2024-03-25T02:54:14;93945.47;;;1.51;100.00
56330;BME280;42236;48.058;10.632;2024-03-25T02:57:00;93935.13;;;1.49;100.00
56330;BME280;42236;48.058;10.632;2024-03-25T02:59:45;93936.22;;;1.48;100.00
56330;BME280;42236;48.058;10.632;2024-03-25T03:02:31;93929.91;;;1.44;100.00
56330;BME280;42236;48.058;10.632;2024-03-25T03:05:17;93938.22;;;1.43;100.00
56330;BME280;42236;48.058;10.632;2024-03-25T03:08:02;93933.78;;;1.38;100.00
56330;BME280;42236;48.058;10.632;2024-03-25T03:10:48;93931.13;;;1.38;100.00
56330;BME280;42236;48.058;10.632;2024-03-25T03:13:34;93937.22;;;1.39;100.00
56330;BME280;42236;48.058;10.632;2024-03-25T03:16:19;93930.34;;;1.38;100.00
56330;BME280;42236;48.058;10.632;2024-03-25T03:19:05;93933.00;;;1.38;100.00
56330;BME280;42236;48.058;10.632;2024-03-25T03:21:50;93930.34;;;1.38;100.00
56330;BME280;42236;48.058;10.632;2024-03-25T03:24:36;93935.97;;;1.36;100.00
56330;BME280;42236;48.058;10.632;2024-03-25T03:27:22;93937.03;;;1.35;100.00
56330;BME280;42236;48.058;10.632;2024-03-25T03:30:09;93922.47;;;1.33;100.00
56330;BME280;42236;48.058;10.632;2024-03-25T03:32:55;93930.44;;;1.33;100.00
56330;BME280;42236;48.058;10.632;2024-03-25T03:35:42;93928.09;;;1.31;100.00
56330;BME280;42236;48.058;10.632;2024-03-25T03:38:28;93929.16;;;1.30;100.00
56330;BME280;42236;48.058;10.632;2024-03-25T03:41:13;93935.28;;;1.31;100.00
56330;BME280;42236;48.058;10.632;2024-03-25T03:43:59;93939.03;;;1.30;100.00
56330;BME280;42236;48.058;10.632;2024-03-25T03:46:45;93933.22;;;1.27;100.00
56330;BME280;42236;48.058;10.632;2024-03-25T03:49:30;93931.66;;;1.26;100.00
56330;BME280;42236;48.058;10.632;2024-03-25T03:52:16;93929.00;;;1.26;100.00
56330;BME280;42236;48.058;10.632;2024-03-25T03:55:02;93928.50;;;1.24;100.00
56330;BME280;42236;48.058;10.632;2024-03-25T03:57:47;93936.00;;;1.22;100.00
56330;BME280;42236;48.058;10.632;2024-03-25T04:00:34;93930.19;;;1.20;100.00
56330;BME280;42236;48.058;10.632;2024-03-25T04:03:20;93927.03;;;1.18;100.00
56330;BME280;42236;48.058;10.632;2024-03-25T04:06:10;93929.41;;;1.20;100.00
56330;BME280;42236;48.058;10.632;2024-03-25T04:08:56;93935.00;;;1.18;100.00
56330;BME280;42236;48.058;10.632;2024-03-25T04:11:42;93939.84;;;1.16;100.00
56330;BME280;42236;48.058;10.632;2024-03-25T04:14:27;93932.94;;;1.15;100.00
56330;BME280;42236;48.058;10.632;2024-03-25T04:17:13;93937.19;;;1.16;100.00
56330;BME280;42236;48.058;10.632;2024-03-25T04:19:59;93940.44;;;1.13;100.00
56330;BME280;42236;48.058;10.632;2024-03-25T04:22:51;93937.28;;;1.11;100.00
56330;BME280;42236;48.058;10.632;2024-03-25T04:25:37;93946.34;;;1.10;100.00
56330;BME280;42236;48.058;10.632;2024-03-25T04:28:22;93938.19;;;1.06;100.00
56330;BME280;42236;48.058;10.632;2024-03-25T04:31:08;93942.22;;;1.04;100.00
56330;BME280;42236;48.058;10.632;2024-03-25T04:33:54;93949.72;;;1.02;100.00
56330;BME280;42236;48.058;10.632;2024-03-25T04:36:39;93944.41;;;1.02;100.00
56330;BME280;42236;48.058;10.632;2024-03-25T04:39:25;93949.22;;;1.00;100.00
56330;BME280;42236;48.058;10.632;2024-03-25T04:42:11;93942.03;;;1.00;100.00
56330;BME280;42236;48.058;10.632;2024-03-25T04:44:57;93953.44;;;1.01;100.00
56330;BME280;42236;48.058;10.632;2024-03-25T04:47:42;93944.97;;;0.99;100.00
56330;BME280;42236;48.058;10.632;2024-03-25T04:50:28;93949.50;;;0.98;100.00
56330;BME280;42236;48.058;10.632;2024-03-25T04:53:14;93954.81;;;0.98;100.00
56330;BME280;42236;48.058;10.632;2024-03-25T04:55:59;93951.38;;;0.98;100.00
56330;BME280;42236;48.058;10.632;2024-03-25T04:58:45;93950.88;;;0.96;100.00
56330;BME280;42236;48.058;10.632;2024-03-25T05:01:30;93952.75;;;0.95;100.00
56330;BME280;42236;48.058;10.632;2024-03-25T05:04:16;93954.63;;;0.95;100.00
56330;BME280;42236;48.058;10.632;2024-03-25T05:07:02;93954.13;;;0.93;100.00
56330;BME280;42236;48.058;10.632;2024-03-25T05:09:47;93952.53;;;0.92;100.00
56330;BME280;42236;48.058;10.632;2024-03-25T05:12:33;93953.63;;;0.91;100.00
56330;BME280;42236;48.058;10.632;2024-03-25T05:15:19;93955.50;;;0.90;100.00
56330;BME280;42236;48.058;10.632;2024-03-25T05:18:04;93963.16;;;0.92;100.00
56330;BME280;42236;48.058;10.632;2024-03-25T05:20:50;93968.97;;;0.94;100.00
56330;BME280;42236;48.058;10.632;2024-03-25T05:23:35;93963.38;;;0.95;100.00
56330;BME280;42236;48.058;10.632;2024-03-25T05:26:21;93965.44;;;0.98;100.00
56330;BME280;42236;48.058;10.632;2024-03-25T05:29:07;93964.53;;;1.03;100.00
56330;BME280;42236;48.058;10.632;2024-03-25T05:31:58;93958.16;;;1.04;100.00
56330;BME280;42236;48.058;10.632;2024-03-25T05:34:44;93959.13;;;1.08;100.00
56330;BME280;42236;48.058;10.632;2024-03-25T05:37:30;93961.50;;;1.10;100.00
56330;BME280;42236;48.058;10.632;2024-03-25T05:40:19;93968.56;;;1.14;100.00
56330;BME280;42236;48.058;10.632;2024-03-25T05:43:04;93967.19;;;1.17;100.00
56330;BME280;42236;48.058;10.632;2024-03-25T05:45:53;93971.91;;;1.20;100.00
56330;BME280;42236;48.058;10.632;2024-03-25T05:48:39;93972.56;;;1.25;100.00
56330;BME280;42236;48.058;10.632;2024-03-25T05:51:25;93974.66;;;1.28;100.00
56330;BME280;42236;48.058;10.632;2024-03-25T05:54:10;93974.06;;;1.32;100.00
56330;BME280;42236;48.058;10.632;2024-03-25T05:56:56;93969.72;;;1.36;100.00
56330;BME280;42236;48.058;10.632;2024-03-25T05:59:42;93969.91;;;1.39;100.00
56330;BME280;42236;48.058;10.632;2024-03-25T06:02:27;93971.66;;;1.44;100.00
56330;BME280;42236;48.058;10.632;2024-03-25T06:05:13;93972.66;;;1.48;100.00
56330;BME280;42236;48.058;10.632;2024-03-25T06:07:58;93971.75;;;1.53;100.00
56330;BME280;42236;48.058;10.632;2024-03-25T06:10:44;93969.28;;;1.56;100.00
56330;BME280;42236;48.058;10.632;2024-03-25T06:13:30;93974.97;;;1.63;100.00
56330;BME280;42236;48.058;10.632;2024-03-25T06:16:15;93961.53;;;1.68;100.00
56330;BME280;42236;48.058;10.632;2024-03-25T06:19:01;93964.09;;;1.74;100.00
56330;BME280;42236;48.058;10.632;2024-03-25T06:21:47;93970.38;;;1.78;100.00
56330;BME280;42236;48.058;10.632;2024-03-25T06:24:32;93965.72;;;1.83;100.00
56330;BME280;42236;48.058;10.632;2024-03-25T06:27:18;93960.28;;;1.88;100.00
56330;BME280;42236;48.058;10.632;2024-03-25T06:30:05;93962.03;;;1.93;100.00
56330;BME280;42236;48.058;10.632;2024-03-25T06:33:09;93969.94;;;1.98;100.00
56330;BME280;42236;48.058;10.632;2024-03-25T06:36:13;93964.16;;;2.05;100.00
56330;BME280;42236;48.058;10.632;2024-03-25T06:38:59;93965.28;;;2.12;100.00
56330;BME280;42236;48.058;10.632;2024-03-25T06:41:45;93969.41;;;2.19;100.00
56330;BME280;42236;48.058;10.632;2024-03-25T06:44:31;93967.41;;;2.24;100.00
56330;BME280;42236;48.058;10.632;2024-03-25T06:47:16;93972.31;;;2.31;100.00
56330;BME280;42236;48.058;10.632;2024-03-25T06:50:02;93977.50;;;2.36;100.00
56330;BME280;42236;48.058;10.632;2024-03-25T06:52:48;93974.72;;;2.41;100.00
56330;BME280;42236;48.058;10.632;2024-03-25T06:55:34;93976.16;;;2.47;100.00
56330;BME280;42236;48.058;10.632;2024-03-25T06:58:21;93974.94;;;2.53;100.00
56330;BME280;42236;48.058;10.632;2024-03-25T07:01:08;93971.06;;;2.60;100.00
56330;BME280;42236;48.058;10.632;2024-03-25T07:03:54;93971.69;;;2.65;100.00
56330;BME280;42236;48.058;10.632;2024-03-25T07:06:40;93976.59;;;2.72;100.00
56330;BME280;42236;48.058;10.632;2024-03-25T07:09:26;93975.38;;;2.78;100.00
56330;BME280;42236;48.058;10.632;2024-03-25T07:12:12;93981.03;;;2.85;100.00
56330;BME280;42236;48.058;10.632;2024-03-25T07:14:58;93973.69;;;2.91;100.00
56330;BME280;42236;48.058;10.632;2024-03-25T07:17:43;93982.31;;;2.96;100.00
56330;BME280;42236;48.058;10.632;2024-03-25T07:20:30;93974.19;;;3.02;100.00
56330;BME280;42236;48.058;10.632;2024-03-25T07:23:16;93971.38;;;3.07;100.00
56330;BME280;42236;48.058;10.632;2024-03-25T07:26:01;93974.84;;;3.16;100.00
56330;BME280;42236;48.058;10.632;2024-03-25T07:28:48;93966.13;;;3.24;100.00
56330;BME280;42236;48.058;10.632;2024-03-25T07:31:34;93965.03;;;3.34;100.00
56330;BME280;42236;48.058;10.632;2024-03-25T07:34:19;93963.78;;;3.40;100.00
56330;BME280;42236;48.058;10.632;2024-03-25T07:37:05;93967.25;;;3.49;100.00
56330;BME280;42236;48.058;10.632;2024-03-25T07:39:51;93965.06;;;3.60;100.00
56330;BME280;42236;48.058;10.632;2024-03-25T07:42:37;93967.44;;;3.70;100.00
56330;BME280;42236;48.058;10.632;2024-03-25T07:45:23;93968.66;;;3.81;100.00
56330;BME280;42236;48.058;10.632;2024-03-25T07:48:08;93968.38;;;3.83;97.98
56330;BME280;42236;48.058;10.632;2024-03-25T07:50:54;93971.66;;;3.89;100.00
56330;BME280;42236;48.058;10.632;2024-03-25T07:53:40;93967.13;;;3.89;98.99
56330;BME280;42236;48.058;10.632;2024-03-25T07:56:25;93974.16;;;3.94;98.78
56330;BME280;42236;48.058;10.632;2024-03-25T07:59:11;93972.28;;;4.03;99.42
56330;BME280;42236;48.058;10.632;2024-03-25T08:01:56;93961.59;;;4.12;97.89
56330;BME280;42236;48.058;10.632;2024-03-25T08:04:42;93973.38;;;4.19;98.68
56330;BME280;42236;48.058;10.632;2024-03-25T08:07:28;93963.47;;;4.28;98.98
56330;BME280;42236;48.058;10.632;2024-03-25T08:10:13;93965.31;;;4.37;98.11
56330;BME280;42236;48.058;10.632;2024-03-25T08:12:59;93963.91;;;4.39;96.22
56330;BME280;42236;48.058;10.632;2024-03-25T08:15:45;93957.78;;;4.47;95.73
56330;BME280;42236;48.058;10.632;2024-03-25T08:18:30;93965.44;;;4.58;96.12
56330;BME280;42236;48.058;10.632;2024-03-25T08:21:16;93964.97;;;4.64;95.59
56330;BME280;42236;48.058;10.632;2024-03-25T08:24:02;93956.13;;;4.73;95.94
56330;BME280;42236;48.058;10.632;2024-03-25T08:26:48;93955.59;;;4.88;96.25
56330;BME280;42236;48.058;10.632;2024-03-25T08:29:34;93955.88;;;4.95;93.84
56330;BME280;42236;48.058;10.632;2024-03-25T08:32:19;93956.03;;;4.99;93.20
56330;BME280;42236;48.058;10.632;2024-03-25T08:35:05;93964.31;;;5.06;91.91
56330;BME280;42236;48.058;10.632;2024-03-25T08:37:51;93953.31;;;5.07;92.43
56330;BME280;42236;48.058;10.632;2024-03-25T08:40:37;93947.78;;;5.12;93.42
56330;BME280;42236;48.058;10.632;2024-03-25T08:43:23;93939.25;;;5.19;91.62
56330;BME280;42236;48.058;10.632;2024-03-25T08:46:08;93935.75;;;5.27;90.93
56330;BME280;42236;48.058;10.632;2024-03-25T08:48:54;93935.06;;;5.39;88.33
56330;BME280;42236;48.058;10.632;2024-03-25T08:51:39;93933.53;;;5.50;89.24
56330;BME280;42236;48.058;10.632;2024-03-25T08:54:25;93937.03;;;5.51;84.48
56330;BME280;42236;48.058;10.632;2024-03-25T08:57:11;93930.88;;;5.50;84.54
56330;BME280;42236;48.058;10.632;2024-03-25T08:59:56;93928.47;;;5.57;85.00
56330;BME280;42236;48.058;10.632;2024-03-25T09:02:42;93923.72;;;5.63;86.01
56330;BME280;42236;48.058;10.632;2024-03-25T09:05:28;93923.13;;;5.78;80.52
56330;BME280;42236;48.058;10.632;2024-03-25T09:08:14;93921.94;;;5.88;82.41
56330;BME280;42236;48.058;10.632;2024-03-25T09:11:00;93914.66;;;5.97;80.05
56330;BME280;42236;48.058;10.632;2024-03-25T09:13:48;93913.97;;;6.01;79.27
56330;BME280;42236;48.058;10.632;2024-03-25T09:16:33;93902.59;;;6.04;75.38
56330;BME280;42236;48.058;10.632;2024-03-25T09:19:19;93905.06;;;6.09;77.99
56330;BME280;42236;48.058;10.632;2024-03-25T09:22:05;93898.41;;;6.15;78.50
56330;BME280;42236;48.058;10.632;2024-03-25T09:24:50;93903.00;;;6.14;76.92
56330;BME280;42236;48.058;10.632;2024-03-25T09:27:36;93895.53;;;6.20;74.48
56330;BME280;42236;48.058;10.632;2024-03-25T09:30:22;93889.84;;;6.22;74.03
56330;BME280;42236;48.058;10.632;2024-03-25T09:33:08;93880.13;;;6.17;72.28
56330;BME280;42236;48.058;10.632;2024-03-25T09:35:54;93886.16;;;6.14;71.64
56330;BME280;42236;48.058;10.632;2024-03-25T09:38:40;93885.94;;;6.19;72.54
56330;BME280;42236;48.058;10.632;2024-03-25T09:41:28;93889.50;;;6.23;70.57
56330;BME280;42236;48.058;10.632;2024-03-25T09:44:18;93878.38;;;6.33;69.70
56330;BME280;42236;48.058;10.632;2024-03-25T09:47:04;93882.63;;;6.47;71.10
56330;BME280;42236;48.058;10.632;2024-03-25T09:49:51;93877.50;;;6.54;69.05
56330;BME280;42236;48.058;10.632;2024-03-25T09:52:37;93868.59;;;6.62;69.08
56330;BME280;42236;48.058;10.632;2024-03-25T09:55:22;93869.72;;;6.73;68.61
56330;BME280;42236;48.058;10.632;2024-03-25T09:58:08;93868.38;;;6.79;66.49
56330;BME280;42236;48.058;10.632;2024-03-25T10:00:54;93864.81;;;6.88;67.16
56330;BME280;42236;48.058;10.632;2024-03-25T10:03:44;93861.09;;;7.04;67.68
56330;BME280;42236;48.058;10.632;2024-03-25T10:06:29;93861.88;;;7.17;66.82
56330;BME280;42236;48.058;10.632;2024-03-25T10:09:19;93842.88;;;7.22;66.06
56330;BME280;42236;48.058;10.632;2024-03-25T10:12:05;93839.06;;;7.23;66.64
56330;BME280;42236;48.058;10.632;2024-03-25T10:14:51;93841.84;;;7.39;67.78
56330;BME280;42236;48.058;10.632;2024-03-25T10:17:37;93840.44;;;7.58;63.64
56330;BME280;42236;48.058;10.632;2024-03-25T10:20:22;93847.41;;;7.75;66.42
56330;BME280;42236;48.058;10.632;2024-03-25T10:23:10;93836.38;;;7.92;65.59
56330;BME280;42236;48.058;10.632;2024-03-25T10:25:57;93831.38;;;8.06;66.78
56330;BME280;42236;48.058;10.632;2024-03-25T10:28:42;93833.50;;;8.29;66.48
56330;BME280;42236;48.058;10.632;2024-03-25T10:31:28;93835.88;;;8.46;65.55
56330;BME280;42236;48.058;10.632;2024-03-25T10:34:14;93829.63;;;8.74;65.46
56330;BME280;42236;48.058;10.632;2024-03-25T10:37:01;93818.09;;;8.89;62.92
56330;BME280;42236;48.058;10.632;2024-03-25T10:39:51;93813.03;;;9.04;60.97
56330;BME280;42236;48.058;10.632;2024-03-25T10:42:39;93815.31;;;8.86;62.71
56330;BME280;42236;48.058;10.632;2024-03-25T10:45:28;93818.25;;;8.81;59.46
56330;BME280;42236;48.058;10.632;2024-03-25T10:48:19;93809.53;;;8.68;58.29
56330;BME280;42236;48.058;10.632;2024-03-25T10:51:08;93798.69;;;8.48;59.37
56330;BME280;42236;48.058;10.632;2024-03-25T10:53:57;93795.38;;;8.39;60.03
56330;BME280;42236;48.058;10.632;2024-03-25T10:56:44;93793.66;;;8.63;61.40
56330;BME280;42236;48.058;10.632;2024-03-25T10:59:30;93781.47;;;8.85;61.17
56330;BME280;42236;48.058;10.632;2024-03-25T11:02:16;93783.03;;;8.86;60.44
56330;BME280;42236;48.058;10.632;2024-03-25T11:05:06;93773.78;;;8.67;57.34
56330;BME280;42236;48.058;10.632;2024-03-25T11:07:51;93773.81;;;8.51;60.76
56330;BME280;42236;48.058;10.632;2024-03-25T11:10:41;93760.69;;;8.66;58.60
56330;BME280;42236;48.058;10.632;2024-03-25T11:13:27;93758.44;;;8.68;59.88
56330;BME280;42236;48.058;10.632;2024-03-25T11:16:13;93756.25;;;8.73;59.58
56330;BME280;42236;48.058;10.632;2024-03-25T11:19:03;93744.28;;;8.71;57.64
56330;BME280;42236;48.058;10.632;2024-03-25T11:21:48;93744.72;;;8.73;59.06
56330;BME280;42236;48.058;10.632;2024-03-25T11:24:34;93741.66;;;8.74;58.97
56330;BME280;42236;48.058;10.632;2024-03-25T11:27:26;93735.78;;;8.69;53.67
56330;BME280;42236;48.058;10.632;2024-03-25T11:30:12;93730.75;;;8.67;57.45
56330;BME280;42236;48.058;10.632;2024-03-25T11:33:01;93726.25;;;8.71;56.88
56330;BME280;42236;48.058;10.632;2024-03-25T11:35:50;93731.78;;;8.79;55.87
56330;BME280;42236;48.058;10.632;2024-03-25T11:38:36;93732.03;;;8.89;57.70
56330;BME280;42236;48.058;10.632;2024-03-25T11:41:24;93727.03;;;8.91;58.28
56330;BME280;42236;48.058;10.632;2024-03-25T11:44:10;93720.34;;;9.01;58.52
56330;BME280;42236;48.058;10.632;2024-03-25T11:46:58;93727.06;;;9.11;58.48
56330;BME280;42236;48.058;10.632;2024-03-25T11:49:43;93721.63;;;9.07;57.56
56330;BME280;42236;48.058;10.632;2024-03-25T11:52:31;93713.25;;;8.93;55.66
56330;BME280;42236;48.058;10.632;2024-03-25T11:55:17;93702.56;;;8.77;55.41
56330;BME280;42236;48.058;10.632;2024-03-25T11:58:03;93694.75;;;8.72;57.02
56330;BME280;42236;48.058;10.632;2024-03-25T12:00:49;93691.72;;;8.73;56.65
56330;BME280;42236;48.058;10.632;2024-03-25T12:03:34;93691.25;;;8.87;56.23
56330;BME280;42236;48.058;10.632;2024-03-25T12:06:20;93681.31;;;8.91;56.20
56330;BME280;42236;48.058;10.632;2024-03-25T12:09:06;93675.16;;;8.91;55.02
56330;BME280;42236;48.058;10.632;2024-03-25T12:12:10;93665.19;;;8.91;55.62
56330;BME280;42236;48.058;10.632;2024-03-25T12:14:56;93662.78;;;8.86;54.46
56330;BME280;42236;48.058;10.632;2024-03-25T12:17:42;93651.34;;;8.89;54.91
56330;BME280;42236;48.058;10.632;2024-03-25T12:20:28;93653.75;;;8.94;55.36
56330;BME280;42236;48.058;10.632;2024-03-25T12:23:15;93644.63;;;8.99;54.47
56330;BME280;42236;48.058;10.632;2024-03-25T12:26:02;93632.28;;;8.98;52.01
56330;BME280;42236;48.058;10.632;2024-03-25T12:28:48;93634.53;;;8.96;54.21
56330;BME280;42236;48.058;10.632;2024-03-25T12:31:34;93629.16;;;8.96;54.11
56330;BME280;42236;48.058;10.632;2024-03-25T12:34:20;93618.41;;;8.96;53.37
56330;BME280;42236;48.058;10.632;2024-03-25T12:37:05;93608.69;;;8.91;53.68
56330;BME280;42236;48.058;10.632;2024-03-25T12:39:51;93613.59;;;8.86;50.10
56330;BME280;42236;48.058;10.632;2024-03-25T12:42:37;93612.19;;;8.92;53.55
56330;BME280;42236;48.058;10.632;2024-03-25T12:45:24;93608.91;;;9.02;53.27
56330;BME280;42236;48.058;10.632;2024-03-25T12:48:10;93604.88;;;9.12;54.13
56330;BME280;42236;48.058;10.632;2024-03-25T12:50:56;93594.66;;;9.21;53.34
56330;BME280;42236;48.058;10.632;2024-03-25T12:53:42;93593.09;;;9.20;52.92
56330;BME280;42236;48.058;10.632;2024-03-25T12:56:27;93592.31;;;9.19;53.08
56330;BME280;42236;48.058;10.632;2024-03-25T12:59:13;93597.66;;;9.16;51.73
56330;BME280;42236;48.058;10.632;2024-03-25T13:01:59;93581.72;;;9.07;52.02
56330;BME280;42236;48.058;10.632;2024-03-25T13:04:45;93564.81;;;9.07;51.51
56330;BME280;42236;48.058;10.632;2024-03-25T13:07:30;93564.03;;;9.06;52.20
56330;BME280;42236;48.058;10.632;2024-03-25T13:10:17;93558.78;;;9.13;52.21
56330;BME280;42236;48.058;10.632;2024-03-25T13:13:03;93563.03;;;9.14;51.29
56330;BME280;42236;48.058;10.632;2024-03-25T13:15:50;93551.97;;;9.19;52.06
56330;BME280;42236;48.058;10.632;2024-03-25T13:18:36;93542.47;;;9.26;51.43
56330;BME280;42236;48.058;10.632;2024-03-25T13:21:21;93536.41;;;9.32;51.09
56330;BME280;42236;48.058;10.632;2024-03-25T13:24:08;93530.75;;;9.37;51.80
56330;BME280;42236;48.058;10.632;2024-03-25T13:26:53;93532.28;;;9.38;51.14
56330;BME280;42236;48.058;10.632;2024-03-25T13:29:39;93536.13;;;9.37;50.13
56330;BME280;42236;48.058;10.632;2024-03-25T13:32:25;93527.22;;;9.33;49.22
56330;BME280;42236;48.058;10.632;2024-03-25T13:35:10;93516.91;;;9.39;48.58
56330;BME280;42236;48.058;10.632;2024-03-25T13:37:56;93516.16;;;9.38;47.09
56330;BME280;42236;48.058;10.632;2024-03-25T13:40:42;93503.41;;;9.35;47.22
56330;BME280;42236;48.058;10.632;2024-03-25T13:43:27;93496.66;;;9.45;47.79
56330;BME280;42236;48.058;10.632;2024-03-25T13:46:13;93505.59;;;9.53;45.40
56330;BME280;42236;48.058;10.632;2024-03-25T13:48:59;93501.72;;;9.50;47.73
56330;BME280;42236;48.058;10.632;2024-03-25T13:51:44;93497.84;;;9.48;46.33
56330;BME280;42236;48.058;10.632;2024-03-25T13:54:30;93503.22;;;9.48;48.00
56330;BME280;42236;48.058;10.632;2024-03-25T13:57:16;93499.50;;;9.56;48.12
56330;BME280;42236;48.058;10.632;2024-03-25T14:00:02;93501.09;;;9.60;48.38
56330;BME280;42236;48.058;10.632;2024-03-25T14:02:54;93488.81;;;9.63;48.96
56330;BME280;42236;48.058;10.632;2024-03-25T14:05:40;93490.44;;;9.68;48.51
56330;BME280;42236;48.058;10.632;2024-03-25T14:08:25;93495.50;;;9.73;48.32
56330;BME280;42236;48.058;10.632;2024-03-25T14:11:11;93483.50;;;9.67;48.62
56330;BME280;42236;48.058;10.632;2024-03-25T14:13:57;93475.78;;;9.65;49.03
56330;BME280;42236;48.058;10.632;2024-03-25T14:16:43;93468.13;;;9.67;48.94
56330;BME280;42236;48.058;10.632;2024-03-25T14:19:29;93455.06;;;9.69;48.67
56330;BME280;42236;48.058;10.632;2024-03-25T14:22:15;93459.31;;;9.70;47.32
56330;BME280;42236;48.058;10.632;2024-03-25T14:25:01;93447.41;;;9.71;48.48
56330;BME280;42236;48.058;10.632;2024-03-25T14:27:46;93432.34;;;9.67;46.39
56330;BME280;42236;48.058;10.632;2024-03-25T14:30:32;93436.69;;;9.75;47.45
56330;BME280;42236;48.058;10.632;2024-03-25T14:33:18;93427.44;;;9.76;45.92
56330;BME280;42236;48.058;10.632;2024-03-25T14:36:04;93423.56;;;9.73;47.60